Time;durP1;ratioP1;P1;durP2;ratioP2;P2;SDS_P1;SDS_P2;PMS_P1;PMS_P2;Temp;Humidity;BMP_temperature;BMP_pressure;BME280_temperature;BME280_humidity;BME280_pressure;Samples;Min_cycle;Max_cycle;Signal;HPM_P1;HPM_P2
2021/09/14 00:00:45;;;;;;;13.13;11.82;;;26.40;99.90;;;;;;4198673;28;20433;-66
2021/09/14 00:02:50;;;;;;;14.73;12.60;;;26.50;99.90;;;;;;4196149;28;20418;-65
2021/09/14 00:04:55;;;;;;;14.60;12.85;;;26.50;99.90;;;;;;4194327;28;20443;-66
2021/09/14 00:07:00;;;;;;;14.63;13.00;;;26.30;99.90;;;;;;4198072;28;20040;-66
2021/09/14 00:09:05;;;;;;;16.42;13.35;;;26.20;99.90;;;;;;4198351;28;20738;-67
2021/09/14 00:11:09;;;;;;;15.43;13.00;;;26.10;99.90;;;;;;4197114;28;20071;-66
2021/09/14 00:13:14;;;;;;;16.17;14.05;;;26.30;99.90;;;;;;4197336;28;20479;-66
2021/09/14 00:15:18;;;;;;;17.05;13.75;;;26.40;99.90;;;;;;4195601;28;20530;-66
2021/09/14 00:17:23;;;;;;;14.02;12.60;;;26.40;99.90;;;;;;4196321;28;20044;-66
2021/09/14 00:19:28;;;;;;;14.43;12.52;;;26.50;99.90;;;;;;4194631;28;20071;-66
2021/09/14 00:21:32;;;;;;;16.83;12.80;;;26.30;99.90;;;;;;4192691;28;20067;-65
2021/09/14 00:23:37;;;;;;;16.55;13.10;;;26.40;99.90;;;;;;4192821;28;20384;-66
2021/09/14 00:25:41;;;;;;;15.48;12.43;;;26.50;99.90;;;;;;4195897;28;20066;-66
2021/09/14 00:27:46;;;;;;;15.75;12.85;;;26.60;99.90;;;;;;4191348;28;20064;-66
2021/09/14 00:29:50;;;;;;;16.92;14.40;;;26.60;99.90;;;;;;4192739;28;20070;-66
2021/09/14 00:31:55;;;;;;;13.85;12.25;;;26.60;99.90;;;;;;4194100;28;20468;-66
2021/09/14 00:33:59;;;;;;;14.52;12.40;;;26.50;99.90;;;;;;4192614;28;20522;-66
2021/09/14 00:36:04;;;;;;;13.88;12.13;;;26.40;99.90;;;;;;4191616;28;20052;-66
2021/09/14 00:38:08;;;;;;;15.07;13.38;;;26.40;99.90;;;;;;4195202;28;20048;-66
2021/09/14 00:40:13;;;;;;;15.20;12.88;;;26.30;99.90;;;;;;4194933;28;20044;-66
2021/09/14 00:42:17;;;;;;;15.52;13.93;;;26.30;99.90;;;;;;4191469;28;20395;-66
2021/09/14 00:44:22;;;;;;;15.27;13.68;;;26.40;99.90;;;;;;4195424;28;20040;-66
2021/09/14 00:46:27;;;;;;;15.43;13.82;;;26.30;99.90;;;;;;4193287;28;20086;-65
2021/09/14 00:48:32;;;;;;;20.23;16.10;;;26.50;99.90;;;;;;4158672;28;20049;-66
2021/09/14 00:50:38;;;;;;;22.23;17.88;;;26.30;99.90;;;;;;4189835;28;20137;-66
2021/09/14 00:52:43;;;;;;;26.40;19.23;;;26.20;99.90;;;;;;4176748;28;20524;-65
2021/09/14 00:54:47;;;;;;;25.38;17.92;;;26.40;99.90;;;;;;4176678;28;20084;-66
2021/09/14 00:56:51;;;;;;;26.02;18.90;;;26.50;99.90;;;;;;4193474;28;20090;-66
2021/09/14 00:58:56;;;;;;;27.65;19.30;;;26.70;99.90;;;;;;4194996;28;20518;-65
2021/09/14 01:01:00;;;;;;;25.85;18.85;;;26.60;99.90;;;;;;4195056;28;20048;-66
2021/09/14 01:03:06;;;;;;;28.98;19.88;;;26.50;99.90;;;;;;4194705;28;20066;-67
2021/09/14 01:05:12;;;;;;;27.02;19.50;;;26.60;99.90;;;;;;4195036;28;20135;-65
2021/09/14 01:07:17;;;;;;;28.48;19.42;;;26.60;99.90;;;;;;4195041;28;20493;-65
2021/09/14 01:09:23;;;;;;;25.15;19.58;;;26.70;99.90;;;;;;4195083;28;20063;-65
2021/09/14 01:11:28;;;;;;;27.13;19.50;;;26.70;99.90;;;;;;4193764;28;20048;-65
2021/09/14 01:13:32;;;;;;;29.58;20.05;;;26.70;99.90;;;;;;4193569;28;20052;-65
2021/09/14 01:15:37;;;;;;;21.10;16.25;;;26.70;99.90;;;;;;4194617;28;20049;-65
2021/09/14 01:17:42;;;;;;;18.15;14.45;;;26.80;99.90;;;;;;4194489;28;20044;-65
2021/09/14 01:19:47;;;;;;;18.08;14.80;;;26.90;99.90;;;;;;4195080;28;20052;-65
2021/09/14 01:21:51;;;;;;;22.65;17.42;;;27.00;99.90;;;;;;4193468;28;20055;-65
2021/09/14 01:23:57;;;;;;;18.60;14.70;;;26.90;99.90;;;;;;4193895;28;20114;-65
2021/09/14 01:26:03;;;;;;;17.10;14.43;;;27.00;99.90;;;;;;4176593;28;20037;-64
2021/09/14 01:28:08;;;;;;;14.52;12.80;;;27.00;99.90;;;;;;4194260;28;20051;-65
2021/09/14 01:30:18;;;;;;;16.20;11.68;;;26.90;99.90;;;;;;4196634;28;20128;-66
2021/09/14 01:32:23;;;;;;;10.35;9.32;;;26.70;99.90;;;;;;4195380;28;20063;-66
2021/09/14 01:34:29;;;;;;;10.40;9.35;;;26.80;99.90;;;;;;4195712;28;20048;-66
2021/09/14 01:36:34;;;;;;;11.27;8.63;;;26.70;99.90;;;;;;4195019;28;20059;-66
2021/09/14 01:38:39;;;;;;;9.93;8.50;;;26.60;99.90;;;;;;4195974;28;20435;-65
2021/09/14 01:40:47;;;;;;;10.15;8.68;;;26.80;99.90;;;;;;4196130;28;20123;-65
2021/09/14 01:42:52;;;;;;;10.88;9.07;;;26.90;99.90;;;;;;4196772;28;20562;-67
2021/09/14 01:44:57;;;;;;;9.85;8.48;;;27.00;99.90;;;;;;4163249;28;20045;-65
2021/09/14 01:47:01;;;;;;;8.98;8.07;;;27.10;99.90;;;;;;4176886;28;20127;-66
2021/09/14 01:49:07;;;;;;;9.45;8.50;;;27.20;99.90;;;;;;4197192;28;20131;-66
2021/09/14 01:51:13;;;;;;;9.98;8.98;;;27.20;99.90;;;;;;4195866;28;20063;-66
2021/09/14 01:53:18;;;;;;;9.43;8.52;;;27.20;99.90;;;;;;4195660;28;20629;-66
2021/09/14 01:55:22;;;;;;;8.88;7.53;;;27.30;99.90;;;;;;4194976;28;20052;-66
2021/09/14 01:57:32;;;;;;;9.57;8.68;;;27.40;99.90;;;;;;4178814;28;20049;-66
2021/09/14 01:59:38;;;;;;;10.88;9.63;;;27.40;99.90;;;;;;4180393;28;20411;-66
2021/09/14 02:01:51;;;;;;;10.75;9.63;;;27.30;99.90;;;;;;4196495;28;20049;-66
2021/09/14 02:04:04;;;;;;;;;;;27.30;99.90;;;;;;4212901;28;20040;-65
2021/09/14 02:06:30;;;;;;;11.13;9.95;;;27.10;99.90;;;;;;4212038;28;20417;-66
2021/09/14 02:33:59;;;;;;;14.68;10.63;;;27.50;99.90;;;;;;4196551;28;20045;-66
2021/09/14 02:38:36;;;;;;;11.30;9.88;;;27.40;99.90;;;;;;4194456;28;20044;-66
2021/09/14 02:43:10;;;;;;;9.63;8.57;;;27.50;99.90;;;;;;4193771;28;20159;-65
2021/09/14 02:56:14;;;;;;;8.80;8.00;;;27.60;99.90;;;;;;4211315;28;20054;-65
2021/09/14 02:58:59;;;;;;;8.38;7.15;;;27.80;99.90;;;;;;4193450;28;20450;-66
2021/09/14 03:01:05;;;;;;;8.05;7.25;;;27.80;99.90;;;;;;4192773;28;20068;-65
2021/09/14 03:03:09;;;;;;;8.02;7.25;;;27.70;99.90;;;;;;4175263;28;20529;-66
2021/09/14 03:05:14;;;;;;;7.57;6.88;;;27.70;99.90;;;;;;4189596;28;20155;-65
2021/09/14 03:07:23;;;;;;;8.07;6.88;;;27.50;99.90;;;;;;4175528;28;20132;-65
2021/09/14 03:09:28;;;;;;;8.43;6.63;;;27.60;99.90;;;;;;4192026;28;20561;-65
2021/09/14 03:11:32;;;;;;;7.47;6.72;;;27.70;99.90;;;;;;4192821;28;20040;-66
2021/09/14 03:13:37;;;;;;;8.90;7.25;;;27.80;99.90;;;;;;4181097;28;20049;-66
2021/09/14 03:15:42;;;;;;;7.15;6.43;;;27.80;99.90;;;;;;4190998;28;20048;-65
2021/09/14 03:17:47;;;;;;;7.05;6.45;;;27.80;99.90;;;;;;4191177;28;20542;-65
2021/09/14 03:19:55;;;;;;;7.28;6.57;;;27.90;99.90;;;;;;4159424;28;20045;-65
2021/09/14 03:22:00;;;;;;;7.00;6.30;;;27.90;99.90;;;;;;4222363;28;20133;-65
2021/09/14 03:24:04;;;;;;;7.68;6.90;;;27.80;99.90;;;;;;4192568;28;20506;-67
2021/09/14 03:26:09;;;;;;;7.15;6.40;;;27.80;99.90;;;;;;4191072;28;20056;-66
2021/09/14 03:28:17;;;;;;;7.75;6.22;;;27.70;99.90;;;;;;4189284;28;20053;-66
2021/09/14 03:30:22;;;;;;;6.85;6.07;;;27.60;99.90;;;;;;4124997;28;20046;-67
2021/09/14 03:32:26;;;;;;;8.07;6.32;;;27.70;99.90;;;;;;4192826;28;20102;-67
2021/09/14 03:34:32;;;;;;;8.35;7.40;;;27.60;99.90;;;;;;4186359;28;20052;-66
2021/09/14 03:36:36;;;;;;;9.95;7.15;;;27.60;99.90;;;;;;4190903;28;20536;-67
2021/09/14 03:38:40;;;;;;;8.90;7.63;;;27.60;99.90;;;;;;4191661;28;20222;-67
2021/09/14 03:40:45;;;;;;;8.45;7.55;;;27.60;99.90;;;;;;4191413;28;20064;-67
2021/09/14 03:42:50;;;;;;;8.50;7.43;;;27.80;99.90;;;;;;4193037;28;20094;-67
2021/09/14 03:44:56;;;;;;;11.30;7.85;;;27.90;99.90;;;;;;4187631;28;20036;-67
2021/09/14 03:47:03;;;;;;;9.23;8.23;;;28.00;99.90;;;;;;4189983;28;20131;-66
2021/09/14 03:49:10;;;;;;;8.30;7.40;;;28.00;99.90;;;;;;4175493;28;20037;-67
2021/09/14 03:51:16;;;;;;;9.65;7.72;;;27.90;99.90;;;;;;4189711;28;20040;-67
2021/09/14 03:53:21;;;;;;;8.95;7.07;;;28.00;99.90;;;;;;4176848;28;20041;-66
2021/09/14 03:55:27;;;;;;;7.68;6.90;;;28.00;99.90;;;;;;4175842;28;20060;-67
2021/09/14 03:57:34;;;;;;;8.25;7.18;;;27.90;99.90;;;;;;4190230;28;20124;-67
2021/09/14 03:59:41;;;;;;;9.20;7.35;;;27.90;99.90;;;;;;4190953;28;20117;-67
2021/09/14 04:01:55;;;;;;;7.88;7.07;;;28.00;99.90;;;;;;4209656;28;20130;-67
2021/09/14 04:04:08;;;;;;;7.20;5.97;;;28.10;99.90;;;;;;4193835;28;20047;-67
2021/09/14 04:10:29;;;;;;;7.40;6.63;;;28.20;99.90;;;;;;4209800;28;20056;-68
2021/09/14 04:12:33;;;;;;;10.95;9.00;;;28.30;99.90;;;;;;4208437;28;20043;-66
2021/09/14 04:14:38;;;;;;;10.82;8.85;;;28.10;99.90;;;;;;4172674;28;20384;-68
2021/09/14 04:16:42;;;;;;;9.50;8.45;;;28.20;99.90;;;;;;4197174;28;20721;-68
2021/09/14 04:18:47;;;;;;;8.82;7.30;;;28.10;99.90;;;;;;4163842;28;20054;-67
2021/09/14 04:20:51;;;;;;;8.75;7.15;;;28.10;99.90;;;;;;4179951;28;20482;-67
2021/09/14 04:22:56;;;;;;;7.40;6.53;;;28.00;99.90;;;;;;4195423;28;20041;-67
2021/09/14 04:25:00;;;;;;;5.75;5.15;;;28.10;99.90;;;;;;4195270;28;20045;-68
2021/09/14 04:27:06;;;;;;;5.18;4.63;;;28.10;99.90;;;;;;4196874;28;20094;-67
2021/09/14 04:29:13;;;;;;;4.82;4.28;;;28.10;99.90;;;;;;4179296;28;20560;-68
2021/09/14 04:31:17;;;;;;;5.43;4.65;;;28.10;99.90;;;;;;4193884;28;20044;-67
2021/09/14 04:33:23;;;;;;;5.45;4.72;;;28.20;99.90;;;;;;4180252;28;20103;-67
2021/09/14 04:35:29;;;;;;;5.03;4.40;;;28.30;99.90;;;;;;4177469;28;20688;-67
2021/09/14 04:37:34;;;;;;;4.90;3.67;;;28.40;99.90;;;;;;4176168;28;20044;-67
2021/09/14 04:39:39;;;;;;;3.67;3.35;;;28.30;99.90;;;;;;4197178;28;20048;-67
2021/09/14 04:41:45;;;;;;;4.45;3.80;;;28.20;99.90;;;;;;4197338;28;20417;-66
2021/09/14 04:43:49;;;;;;;4.72;3.60;;;28.10;99.90;;;;;;4192728;28;20052;-67
2021/09/14 04:45:54;;;;;;;3.55;3.13;;;28.30;99.90;;;;;;4193451;28;20033;-68
2021/09/14 04:47:59;;;;;;;3.38;3.08;;;28.40;99.90;;;;;;4193771;28;20049;-67
2021/09/14 04:50:05;;;;;;;4.82;3.47;;;28.50;99.90;;;;;;4192761;28;20060;-68
2021/09/14 04:52:10;;;;;;;3.42;2.92;;;28.70;99.90;;;;;;4177893;28;20052;-67
2021/09/14 04:54:15;;;;;;;3.45;2.35;;;28.80;99.90;;;;;;4194413;28;20048;-67
2021/09/14 04:56:19;;;;;;;3.10;2.50;;;28.70;99.90;;;;;;4177710;28;20168;-67
2021/09/14 04:58:24;;;;;;;3.22;2.90;;;28.70;99.90;;;;;;4193539;28;20032;-67
2021/09/14 05:00:30;;;;;;;3.78;3.20;;;28.70;99.90;;;;;;4193164;28;20049;-70
2021/09/14 05:02:35;;;;;;;3.60;3.30;;;28.80;99.90;;;;;;4211201;28;20451;-68
2021/09/14 05:04:39;;;;;;;4.45;3.45;;;28.80;99.90;;;;;;4211176;28;20360;-67
2021/09/14 05:06:44;;;;;;;3.80;3.40;;;28.80;99.90;;;;;;4211703;28;20044;-67
2021/09/14 05:08:50;;;;;;;4.45;3.15;;;28.90;99.90;;;;;;4194516;28;20090;-67
2021/09/14 05:10:55;;;;;;;3.13;2.67;;;28.90;99.90;;;;;;4194085;28;20139;-67
2021/09/14 05:13:01;;;;;;;2.65;2.45;;;29.00;99.90;;;;;;4193405;28;20049;-67
2021/09/14 05:15:06;;;;;;;2.22;2.03;;;29.10;99.90;;;;;;4195326;28;20074;-67
2021/09/14 05:17:22;;;;;;;2.70;2.45;;;29.00;99.90;;;;;;4197161;28;20422;-67
2021/09/14 05:19:48;;;;;;;2.53;2.33;;;29.10;99.90;;;;;;4196443;28;20052;-67
2021/09/14 05:21:53;;;;;;;3.03;2.50;;;29.20;99.90;;;;;;4196838;28;20644;-66
2021/09/14 05:23:59;;;;;;;2.72;2.53;;;29.10;99.90;;;;;;4195917;28;20526;-66
2021/09/14 05:26:04;;;;;;;2.45;2.20;;;29.10;99.90;;;;;;4197300;28;20049;-66
2021/09/14 05:28:11;;;;;;;2.47;1.80;;;29.10;99.90;;;;;;4195535;28;20645;-67
2021/09/14 05:30:15;;;;;;;1.95;1.80;;;29.00;99.90;;;;;;4180306;28;20051;-67
2021/09/14 05:32:20;;;;;;;2.53;2.22;;;29.10;99.90;;;;;;4196924;28;20063;-67
2021/09/14 05:34:25;;;;;;;2.58;2.35;;;29.10;99.90;;;;;;4179347;28;20078;-66
2021/09/14 05:36:30;;;;;;;2.13;1.92;;;29.10;99.90;;;;;;4197143;28;20124;-67
2021/09/14 05:38:34;;;;;;;1.98;1.60;;;29.20;99.90;;;;;;4197364;28;20051;-65
2021/09/14 05:40:39;;;;;;;2.30;2.05;;;29.20;99.90;;;;;;4196637;28;20036;-66
2021/09/14 05:42:49;;;;;;;2.70;1.98;;;29.30;99.90;;;;;;4195411;28;20121;-65
2021/09/14 05:44:54;;;;;;;2.05;1.85;;;29.50;99.90;;;;;;4178890;28;20045;-66
2021/09/14 05:46:59;;;;;;;2.03;1.83;;;29.60;99.90;;;;;;4195691;28;20055;-66
2021/09/14 05:49:05;;;;;;;2.20;2.00;;;29.60;99.90;;;;;;4179966;28;20059;-66
2021/09/14 05:51:11;;;;;;;3.15;1.90;;;29.60;99.90;;;;;;4195971;28;20056;-66
2021/09/14 05:53:26;;;;;;;2.53;2.30;;;29.50;99.90;;;;;;4195638;28;20501;-66
2021/09/14 05:55:34;;;;;;;2.65;2.00;;;29.50;99.90;;;;;;4195677;28;20127;-66
2021/09/14 05:57:39;;;;;;;4.18;2.15;;;29.30;99.90;;;;;;4162994;28;20463;-66
2021/09/14 05:59:44;;;;;;;2.28;1.98;;;29.20;99.90;;;;;;4179669;28;20053;-66
2021/09/14 06:01:53;;;;;;;2.25;1.90;;;29.10;99.90;;;;;;4195267;28;20045;-66
2021/09/14 06:03:59;;;;;;;2.05;1.85;;;29.00;99.90;;;;;;4195651;28;20090;-67
2021/09/14 06:06:05;;;;;;;2.30;2.10;;;29.20;99.90;;;;;;4179481;28;20527;-66
2021/09/14 06:08:09;;;;;;;2.78;2.03;;;29.40;99.90;;;;;;4195459;28;20589;-66
2021/09/14 06:10:19;;;;;;;1.95;1.85;;;29.30;99.90;;;;;;4195419;28;20040;-66
2021/09/14 06:12:39;;;;;;;2.20;2.00;;;29.50;99.90;;;;;;4196039;28;20473;-66
2021/09/14 06:14:44;;;;;;;2.30;2.10;;;29.70;99.90;;;;;;4195252;28;20076;-65
2021/09/14 06:16:50;;;;;;;2.80;1.95;;;30.00;99.90;;;;;;4195424;28;20089;-66
2021/09/14 06:19:00;;;;;;;2.65;2.20;;;29.80;99.90;;;;;;4194775;28;20130;-65
2021/09/14 06:21:09;;;;;;;2.20;2.00;;;29.90;99.90;;;;;;4194620;28;20051;-66
2021/09/14 06:23:14;;;;;;;2.00;1.75;;;30.00;99.90;;;;;;4191546;28;20060;-66
2021/09/14 06:25:20;;;;;;;4.85;2.35;;;30.20;99.90;;;;;;4192351;28;20037;-66
2021/09/14 06:27:24;;;;;;;4.43;1.70;;;30.40;99.90;;;;;;4192263;28;20048;-66
2021/09/14 06:29:29;;;;;;;2.10;1.90;;;30.40;99.90;;;;;;4190773;28;20052;-66
2021/09/14 06:31:34;;;;;;;3.60;2.03;;;30.30;99.90;;;;;;4192076;28;20102;-66
2021/09/14 06:33:38;;;;;;;3.25;1.95;;;30.40;99.90;;;;;;4192550;28;20106;-65
2021/09/14 06:35:43;;;;;;;2.22;1.75;;;30.50;99.90;;;;;;4192777;28;20056;-65
2021/09/14 06:37:55;;;;;;;3.63;2.28;;;30.60;99.90;;;;;;4192596;28;20044;-66
2021/09/14 06:40:01;;;;;;;2.13;1.80;;;30.60;99.90;;;;;;4160635;28;20076;-66
2021/09/14 06:42:05;;;;;;;3.47;1.90;;;30.50;99.90;;;;;;4176228;28;20041;-66
2021/09/14 06:44:10;;;;;;;2.10;1.70;;;30.40;99.90;;;;;;4192143;28;20418;-65
2021/09/14 06:46:29;;;;;;;4.43;2.03;;;30.40;99.90;;;;;;4192625;28;20044;-66
2021/09/14 06:48:42;;;;;;;2.00;1.70;;;30.50;99.90;;;;;;4192519;28;20442;-66
2021/09/14 06:50:48;;;;;;;1.70;1.60;;;30.50;99.90;;;;;;4193890;28;20493;-65
2021/09/14 06:52:55;;;;;;;1.85;1.60;;;30.60;99.90;;;;;;4193347;28;20048;-66
2021/09/14 06:54:59;;;;;;;1.55;1.45;;;30.60;99.90;;;;;;4193758;28;20068;-65
2021/09/14 06:57:04;;;;;;;1.50;1.40;;;30.60;99.90;;;;;;4194013;28;20509;-65
2021/09/14 06:59:09;;;;;;;1.88;1.42;;;30.60;99.90;;;;;;4192759;28;20064;-66
2021/09/14 07:01:20;;;;;;;1.83;1.58;;;30.60;99.90;;;;;;4193732;28;20047;-65
2021/09/14 07:03:26;;;;;;;1.83;1.60;;;30.50;99.90;;;;;;4192757;28;20129;-65
2021/09/14 07:05:31;;;;;;;1.63;1.25;;;30.60;99.90;;;;;;4193791;28;20045;-66
2021/09/14 07:07:35;;;;;;;2.47;1.30;;;30.70;99.90;;;;;;4192367;28;20056;-66
2021/09/14 07:09:41;;;;;;;1.40;1.27;;;30.50;99.90;;;;;;4193862;28;20381;-66
2021/09/14 07:11:46;;;;;;;1.60;1.20;;;30.60;99.90;;;;;;4193343;28;20091;-66
2021/09/14 07:13:52;;;;;;;1.63;1.30;;;30.60;99.90;;;;;;4193112;28;20062;-67
2021/09/14 07:15:56;;;;;;;1.88;1.33;;;30.70;99.90;;;;;;4189828;28;20052;-66
2021/09/14 07:18:01;;;;;;;1.60;1.40;;;30.70;99.90;;;;;;4193579;28;20072;-67
2021/09/14 07:20:07;;;;;;;1.80;1.17;;;30.60;99.90;;;;;;4193947;28;20562;-67
2021/09/14 07:22:14;;;;;;;1.75;1.17;;;30.50;99.90;;;;;;4193083;28;20044;-66
2021/09/14 07:24:19;;;;;;;1.30;1.10;;;30.40;99.90;;;;;;4193385;28;20048;-67
2021/09/14 07:26:23;;;;;;;1.70;1.40;;;30.30;99.90;;;;;;4193168;28;20449;-67
2021/09/14 07:28:27;;;;;;;1.55;1.25;;;30.30;99.90;;;;;;4193169;28;20047;-67
2021/09/14 07:30:31;;;;;;;2.58;1.42;;;30.20;99.90;;;;;;4193591;28;20037;-68
2021/09/14 07:32:36;;;;;;;2.15;1.33;;;30.20;99.90;;;;;;4193409;28;20052;-67
2021/09/14 07:34:40;;;;;;;3.80;1.38;;;30.20;99.90;;;;;;4195655;28;20260;-67
2021/09/14 07:36:45;;;;;;;2.42;1.30;;;30.30;99.90;;;;;;4196095;28;20045;-67
2021/09/14 07:38:49;;;;;;;2.00;1.27;;;30.20;99.90;;;;;;4194905;28;20082;-67
2021/09/14 07:40:59;;;;;;;1.70;1.50;;;30.20;99.90;;;;;;4194604;28;20044;-67
2021/09/14 07:43:04;;;;;;;1.70;1.50;;;30.20;99.90;;;;;;4195718;28;20435;-67
2021/09/14 07:45:09;;;;;;;2.28;2.05;;;30.10;99.90;;;;;;4195331;28;20123;-66
2021/09/14 07:47:13;;;;;;;2.35;2.00;;;30.10;99.90;;;;;;4193350;28;20041;-66
2021/09/14 07:49:18;;;;;;;2.25;1.65;;;30.00;99.90;;;;;;4195231;28;20060;-66
2021/09/14 07:51:24;;;;;;;3.53;1.77;;;29.80;99.90;;;;;;4198564;28;20047;-66
2021/09/14 07:53:29;;;;;;;3.28;1.60;;;29.80;99.90;;;;;;4198479;28;20072;-65
2021/09/14 07:55:34;;;;;;;2.08;1.80;;;29.80;99.90;;;;;;4181012;28;20045;-66
2021/09/14 07:57:38;;;;;;;2.00;1.60;;;29.60;99.90;;;;;;4198524;28;20051;-66
2021/09/14 07:59:43;;;;;;;1.40;1.30;;;29.70;99.90;;;;;;4197384;28;20040;-66
2021/09/14 08:01:48;;;;;;;1.85;1.65;;;29.80;99.90;;;;;;4181321;28;20504;-65
2021/09/14 08:03:53;;;;;;;1.60;1.50;;;30.00;99.90;;;;;;4190196;28;20136;-66
2021/09/14 08:05:57;;;;;;;2.72;1.60;;;30.00;99.90;;;;;;4198747;28;20041;-66
2021/09/14 08:08:01;;;;;;;2.25;1.58;;;30.00;99.90;;;;;;4198454;28;20400;-65
2021/09/14 08:10:07;;;;;;;1.50;1.30;;;30.00;99.90;;;;;;4197161;28;20506;-65
2021/09/14 08:12:11;;;;;;;1.63;1.33;;;30.00;99.90;;;;;;4198667;28;20388;-66
2021/09/14 08:14:16;;;;;;;2.13;1.75;;;30.00;99.90;;;;;;4194784;28;20084;-66
2021/09/14 08:16:20;;;;;;;1.40;1.30;;;30.00;99.90;;;;;;4197314;28;20628;-67
2021/09/14 08:18:25;;;;;;;3.47;1.70;;;30.10;99.90;;;;;;4186158;28;20094;-67
2021/09/14 08:20:29;;;;;;;1.73;1.48;;;30.00;99.90;;;;;;4193252;28;20101;-66
2021/09/14 08:22:34;;;;;;;1.70;1.60;;;30.00;99.90;;;;;;4196201;28;20513;-67
2021/09/14 08:24:39;;;;;;;2.22;1.70;;;30.00;99.90;;;;;;4194854;28;20045;-67
2021/09/14 08:26:43;;;;;;;2.25;1.40;;;30.00;99.90;;;;;;4196622;28;20075;-67
2021/09/14 08:28:50;;;;;;;2.00;1.50;;;29.80;99.90;;;;;;4196459;28;20418;-67
2021/09/14 08:30:59;;;;;;;1.50;1.40;;;29.70;99.90;;;;;;4194461;28;20059;-68
2021/09/14 08:33:05;;;;;;;2.08;1.40;;;29.60;99.90;;;;;;4197849;28;20040;-68
2021/09/14 08:35:10;;;;;;;2.70;1.95;;;29.40;99.90;;;;;;4197684;28;20079;-68
2021/09/14 08:37:14;;;;;;;2.40;1.70;;;29.50;99.90;;;;;;4195621;28;20048;-68
2021/09/14 08:39:19;;;;;;;2.20;1.85;;;29.60;99.90;;;;;;4195777;28;20127;-68
2021/09/14 08:41:24;;;;;;;1.85;1.58;;;29.60;99.90;;;;;;4196772;28;20135;-68
2021/09/14 08:43:28;;;;;;;1.60;1.50;;;29.60;99.90;;;;;;4197719;28;20127;-68
2021/09/14 08:45:32;;;;;;;3.20;1.60;;;29.60;99.90;;;;;;4174301;28;20527;-67
2021/09/14 08:47:46;;;;;;;2.10;1.70;;;29.70;99.90;;;;;;4174761;28;20049;-66
2021/09/14 08:49:50;;;;;;;2.10;1.63;;;29.60;99.90;;;;;;4159958;28;20053;-67
2021/09/14 08:51:56;;;;;;;2.00;1.67;;;29.60;99.90;;;;;;4161795;28;20092;-66
2021/09/14 08:54:00;;;;;;;2.38;1.73;;;29.70;99.90;;;;;;4176365;28;20124;-66
2021/09/14 08:56:06;;;;;;;2.30;1.80;;;29.80;99.90;;;;;;4178040;28;20118;-66
2021/09/14 08:58:13;;;;;;;3.00;1.90;;;29.90;99.90;;;;;;4161755;28;20096;-66
2021/09/14 09:00:35;;;;;;;2.90;2.20;;;29.90;99.90;;;;;;4158803;28;20455;-66
2021/09/14 09:02:41;;;;;;;2.58;1.73;;;29.90;99.90;;;;;;4159085;28;20478;-66
2021/09/14 09:04:57;;;;;;;2.88;2.28;;;29.70;99.90;;;;;;4177445;28;20056;-66
2021/09/14 09:07:02;;;;;;;3.85;2.10;;;29.70;99.90;;;;;;4177435;28;20640;-67
2021/09/14 09:09:13;;;;;;;2.55;2.20;;;29.60;99.90;;;;;;4177475;28;20052;-66
2021/09/14 09:11:17;;;;;;;3.25;2.20;;;29.70;99.90;;;;;;4172719;28;20095;-67
2021/09/14 09:13:22;;;;;;;2.95;2.13;;;29.70;99.90;;;;;;4174424;28;20087;-67
2021/09/14 09:15:31;;;;;;;6.32;2.80;;;29.60;99.90;;;;;;4177591;28;20037;-67
2021/09/14 09:17:36;;;;;;;3.70;2.88;;;29.50;99.90;;;;;;4193647;28;20135;-67
2021/09/14 09:20:01;;;;;;;2.70;2.50;;;29.60;99.90;;;;;;4193406;28;20048;-67
2021/09/14 09:22:05;;;;;;;3.80;2.60;;;29.60;99.90;;;;;;4194968;28;20044;-67
2021/09/14 09:24:12;;;;;;;6.13;2.65;;;29.60;99.90;;;;;;4196290;28;20406;-67
2021/09/14 09:26:16;;;;;;;3.67;2.45;;;29.70;99.90;;;;;;4195430;28;20052;-67
2021/09/14 09:28:22;;;;;;;3.33;2.13;;;29.70;99.90;;;;;;4196064;28;20298;-67
2021/09/14 09:30:33;;;;;;;2.58;2.08;;;29.70;99.90;;;;;;4193659;28;20048;-67
2021/09/14 09:32:48;;;;;;;2.30;2.10;;;29.70;99.90;;;;;;4194596;28;20045;-66
2021/09/14 09:34:59;;;;;;;2.28;1.90;;;29.80;99.90;;;;;;4178668;28;20578;-66
2021/09/14 09:37:10;;;;;;;2.58;1.80;;;29.90;99.90;;;;;;4194686;28;20455;-66
2021/09/14 09:39:15;;;;;;;2.63;1.95;;;29.80;99.90;;;;;;4193678;28;20530;-66
2021/09/14 09:41:19;;;;;;;2.17;1.85;;;29.90;99.90;;;;;;4178193;28;20037;-66
2021/09/14 09:43:31;;;;;;;2.42;1.85;;;29.80;99.90;;;;;;4195377;28;20565;-66
2021/09/14 09:45:46;;;;;;;3.90;1.98;;;29.80;99.90;;;;;;4194591;28;20032;-66
2021/09/14 09:47:51;;;;;;;2.50;2.28;;;29.80;99.90;;;;;;4177054;28;20056;-67
2021/09/14 09:49:57;;;;;;;3.60;2.70;;;29.80;99.90;;;;;;4195455;28;20052;-66
2021/09/14 09:52:03;;;;;;;3.45;2.50;;;29.90;99.90;;;;;;4194906;28;20555;-67
2021/09/14 09:54:07;;;;;;;3.42;2.38;;;29.80;99.90;;;;;;4193588;28;20059;-66
2021/09/14 09:56:12;;;;;;;2.95;2.53;;;29.80;99.90;;;;;;4194430;28;20501;-67
2021/09/14 09:58:18;;;;;;;3.85;2.10;;;29.90;99.90;;;;;;4193177;28;20072;-67
2021/09/14 10:00:23;;;;;;;3.50;3.20;;;29.80;99.90;;;;;;4176284;28;20140;-67
2021/09/14 10:02:27;;;;;;;5.35;3.00;;;29.70;99.90;;;;;;4158027;28;20092;-66
2021/09/14 10:04:38;;;;;;;5.82;4.25;;;29.60;99.90;;;;;;4160080;28;20041;-67
2021/09/14 10:07:02;;;;;;;4.93;3.72;;;29.50;99.90;;;;;;4160519;28;20137;-66
2021/09/14 10:09:07;;;;;;;5.22;3.13;;;29.60;99.90;;;;;;4168846;28;20128;-68
2021/09/14 10:11:12;;;;;;;4.10;2.70;;;29.50;99.90;;;;;;4173783;28;20048;-68
2021/09/14 10:13:16;;;;;;;5.00;2.60;;;29.60;99.90;;;;;;4176473;28;20329;-68
2021/09/14 10:15:21;;;;;;;3.30;2.17;;;29.70;99.90;;;;;;4176208;28;20072;-66
2021/09/14 10:17:26;;;;;;;2.53;2.33;;;29.70;99.90;;;;;;4176268;28;20064;-66
2021/09/14 10:19:32;;;;;;;3.15;2.50;;;29.60;99.90;;;;;;4127197;28;20532;-67
2021/09/14 10:21:37;;;;;;;3.38;2.80;;;29.50;99.90;;;;;;4126945;28;20046;-66
2021/09/14 10:23:43;;;;;;;4.45;2.70;;;29.50;99.90;;;;;;4127779;28;20105;-65
2021/09/14 10:25:51;;;;;;;3.55;2.63;;;29.50;99.90;;;;;;4108666;28;20484;-65
2021/09/14 10:28:09;;;;;;;3.88;2.55;;;29.40;99.90;;;;;;4111860;28;20042;-65
2021/09/14 10:30:15;;;;;;;4.35;2.80;;;29.40;99.90;;;;;;4124462;28;20157;-66
2021/09/14 10:32:20;;;;;;;5.78;2.75;;;29.40;99.90;;;;;;4102471;28;20490;-66
2021/09/14 10:34:25;;;;;;;3.20;2.58;;;29.30;99.90;;;;;;4103048;28;20113;-67
2021/09/14 10:36:32;;;;;;;5.07;2.60;;;29.30;99.90;;;;;;4103316;28;20057;-66
2021/09/14 10:38:38;;;;;;;4.65;2.35;;;29.40;99.90;;;;;;4102967;28;20138;-66
2021/09/14 10:40:54;;;;;;;4.68;2.80;;;29.40;99.90;;;;;;4106424;28;20051;-67
2021/09/14 10:42:59;;;;;;;5.00;2.75;;;29.40;99.90;;;;;;4083867;29;20051;-67
2021/09/14 10:45:10;;;;;;;4.35;3.30;;;29.40;99.90;;;;;;4107909;28;20122;-69
2021/09/14 10:47:17;;;;;;;5.70;3.40;;;29.50;99.90;;;;;;4124345;28;20054;-67
2021/09/14 10:49:22;;;;;;;4.85;3.42;;;29.50;99.90;;;;;;4125688;28;20097;-67
2021/09/14 10:51:26;;;;;;;6.00;3.58;;;29.50;99.90;;;;;;4112835;28;20635;-68
2021/09/14 10:53:31;;;;;;;6.60;3.35;;;29.50;99.90;;;;;;4111084;28;20046;-67
2021/09/14 10:55:36;;;;;;;5.50;3.75;;;29.50;99.90;;;;;;4095478;29;20409;-68
2021/09/14 10:57:43;;;;;;;6.88;3.50;;;29.50;99.90;;;;;;4091911;28;20038;-70
2021/09/14 10:59:48;;;;;;;4.82;3.15;;;29.40;99.90;;;;;;4095651;28;20054;-68
2021/09/14 11:01:52;;;;;;;6.70;3.38;;;29.50;99.90;;;;;;4111044;28;20138;-68
2021/09/14 11:04:07;;;;;;;3.90;3.10;;;29.50;99.90;;;;;;4116259;28;20083;-67
2021/09/14 11:06:13;;;;;;;7.25;3.30;;;29.50;99.90;;;;;;4143102;28;20050;-67
2021/09/14 11:08:23;;;;;;;4.63;3.42;;;29.50;99.90;;;;;;4140051;28;20053;-67
2021/09/14 11:10:38;;;;;;;7.03;3.47;;;29.50;99.90;;;;;;4142605;28;20108;-67
2021/09/14 11:12:46;;;;;;;4.40;3.50;;;29.50;99.90;;;;;;4169992;28;20168;-67
2021/09/14 11:14:52;;;;;;;8.98;4.95;;;29.50;99.90;;;;;;4176458;28;20053;-67
2021/09/14 11:16:57;;;;;;;9.05;5.13;;;29.50;99.90;;;;;;4159762;28;20503;-68
2021/09/14 11:19:01;;;;;;;7.80;6.32;;;29.40;99.90;;;;;;4176261;28;20045;-67
2021/09/14 11:21:10;;;;;;;14.38;9.25;;;29.40;99.90;;;;;;4159506;28;20068;-66
2021/09/14 11:23:21;;;;;;;8.60;7.45;;;29.40;99.90;;;;;;4173839;28;20128;-66
2021/09/14 11:25:26;;;;;;;11.55;9.23;;;29.40;99.90;;;;;;4175903;28;20550;-67
2021/09/14 11:27:31;;;;;;;19.77;16.73;;;29.40;99.90;;;;;;4143464;28;20058;-67
2021/09/14 11:29:36;;;;;;;32.85;29.50;;;29.40;99.90;;;;;;4186958;28;20048;-67
2021/09/14 11:31:40;;;;;;;32.08;28.05;;;29.40;99.90;;;;;;4191866;28;20053;-67
2021/09/14 11:33:45;;;;;;;22.90;20.27;;;29.40;99.90;;;;;;4190924;28;20434;-66
2021/09/14 11:35:50;;;;;;;16.63;14.38;;;29.40;99.90;;;;;;4173119;28;20161;-66
2021/09/14 11:38:06;;;;;;;14.00;12.32;;;29.40;99.90;;;;;;4159668;28;20076;-66
2021/09/14 11:40:18;;;;;;;17.45;14.88;;;29.30;99.90;;;;;;4159380;28;20061;-66